Time;durP1;ratioP1;P1;durP2;ratioP2;P2;SDS_P1;SDS_P2;PMS_P1;PMS_P2;Temp;Humidity;BMP_temperature;BMP_pressure;BME280_temperature;BME280_humidity;BME280_pressure;Samples;Min_cycle;Max_cycle;Signal;HPM_P1;HPM_P2
2021/12/12 00:01:49;;;;;;;30.95;12.15;;;;;;;-8.31;65.89;101386.19;5051194;28;20112;-51
2021/12/12 00:04:18;;;;;;;30.15;9.93;;;;;;;-8.31;65.16;101371.44;5049521;28;20432;-51
2021/12/12 00:06:49;;;;;;;31.58;11.20;;;;;;;-8.28;64.92;101376.72;5051056;28;20033;-52
2021/12/12 00:09:41;;;;;;;37.10;11.52;;;;;;;-8.08;64.98;101395.34;5051426;28;20033;-53
2021/12/12 00:12:18;;;;;;;30.35;11.85;;;;;;;-8.15;64.80;101402.97;5049746;28;20040;-51
2021/12/12 00:14:43;;;;;;;31.20;11.55;;;;;;;-8.34;65.95;101381.78;5050760;28;20078;-51
2021/12/12 00:17:11;;;;;;;33.30;10.93;;;;;;;-8.46;66.08;101353.81;5050962;28;20104;-52
2021/12/12 00:19:38;;;;;;;30.55;10.68;;;;;;;-8.16;66.31;101399.47;5051043;28;20079;-55
2021/12/12 00:22:08;;;;;;;27.45;9.30;;;;;;;-8.08;65.66;101391.84;5051099;28;20159;-57
2021/12/12 00:24:35;;;;;;;26.55;10.20;;;;;;;-8.03;65.64;101415.34;5050818;28;20120;-53
2021/12/12 00:27:01;;;;;;;27.23;9.75;;;;;;;-8.20;65.59;101371.69;5050923;28;20039;-53
2021/12/12 00:29:31;;;;;;;27.48;10.75;;;;;;;-8.23;65.09;101369.88;5050872;28;20041;-54
2021/12/12 00:32:00;;;;;;;26.00;10.43;;;;;;;-8.08;65.29;101423.06;5050609;28;20179;-52
2021/12/12 00:34:31;;;;;;;28.60;9.75;;;;;;;-8.15;65.21;101422.03;5050538;28;20021;-53
2021/12/12 00:36:57;;;;;;;26.67;10.18;;;;;;;-8.22;66.10;101417.56;5051876;28;20029;-49
2021/12/12 00:39:26;;;;;;;26.45;9.70;;;;;;;-8.29;65.39;101380.16;5054157;28;20040;-54
2021/12/12 00:41:58;;;;;;;24.70;9.80;;;;;;;-8.28;66.05;101401.84;5053374;28;20029;-52
2021/12/12 00:44:26;;;;;;;22.15;8.85;;;;;;;-8.22;65.68;101417.56;5054469;28;20032;-52
2021/12/12 00:46:54;;;;;;;32.08;10.82;;;;;;;-8.18;65.35;101418.50;5054487;28;20408;-49
2021/12/12 00:49:21;;;;;;;24.95;9.00;;;;;;;-8.33;66.06;101419.91;5054675;28;20032;-53
2021/12/12 00:51:46;;;;;;;27.00;9.13;;;;;;;-8.29;66.35;101436.44;5054423;28;20033;-54
2021/12/12 00:54:14;;;;;;;30.65;10.82;;;;;;;-8.34;66.15;101407.75;5053239;28;20032;-52
2021/12/12 00:56:41;;;;;;;29.08;10.70;;;;;;;-8.27;66.33;101422.63;5054433;28;20036;-53
2021/12/12 00:59:07;;;;;;;29.73;10.05;;;;;;;-8.22;65.62;101413.22;5054391;28;20048;-52
2021/12/12 01:01:39;;;;;;;29.25;11.30;;;;;;;-8.30;66.40;101419.97;5054995;28;20418;-53
2021/12/12 01:04:33;;;;;;;28.88;10.32;;;;;;;-8.14;66.02;101418.59;5054895;28;20112;-54
2021/12/12 01:07:04;;;;;;;32.88;12.07;;;;;;;-8.20;66.37;101421.06;5053515;28;20052;-49
2021/12/12 01:09:37;;;;;;;34.70;11.82;;;;;;;-8.18;66.74;101423.72;5054188;28;20040;-51
2021/12/12 01:12:08;;;;;;;34.47;11.88;;;;;;;-8.29;65.52;101379.28;5054310;28;20029;-53
2021/12/12 01:14:41;;;;;;;35.65;12.90;;;;;;;-8.08;65.61;101425.66;5054237;28;20110;-55
2021/12/12 01:17:12;;;;;;;36.97;12.18;;;;;;;-8.17;66.17;101425.47;5054369;28;20071;-49
2021/12/12 01:19:43;;;;;;;36.72;12.40;;;;;;;-8.15;66.61;101421.16;5053949;28;20029;-51
2021/12/12 01:22:17;;;;;;;31.95;11.05;;;;;;;-8.01;66.42;101419.72;5052735;28;20024;-52
2021/12/12 01:24:46;;;;;;;37.30;13.00;;;;;;;-8.07;66.24;101412.69;5053724;28;20397;-50
2021/12/12 01:27:13;;;;;;;31.85;12.32;;;;;;;-8.06;66.40;101416.16;5054132;28;20045;-53
2021/12/12 01:29:38;;;;;;;33.47;11.80;;;;;;;-8.04;66.69;101413.59;5053615;28;20052;-48
2021/12/12 01:32:11;;;;;;;32.20;11.65;;;;;;;-7.98;66.21;101417.19;5052902;28;20033;-51
2021/12/12 01:34:37;;;;;;;29.33;10.07;;;;;;;-7.87;65.49;101414.81;5054092;28;20377;-51
2021/12/12 01:37:22;;;;;;;20.35;7.22;;;;;;;-7.89;65.67;101408.72;5053854;28;20028;-49
2021/12/12 01:39:48;;;;;;;32.72;11.25;;;;;;;-8.30;65.83;101365.41;5053413;28;20143;-51
2021/12/12 01:42:38;;;;;;;35.78;12.45;;;;;;;-8.11;66.35;101400.47;5052766;28;20033;-49
2021/12/12 01:45:18;;;;;;;34.08;12.32;;;;;;;-8.08;66.34;101400.56;5052355;28;20461;-52
2021/12/12 01:47:50;;;;;;;37.65;12.77;;;;;;;-8.05;66.29;101394.53;5052914;28;20029;-52
2021/12/12 01:50:23;;;;;;;33.00;11.63;;;;;;;-8.09;66.31;101382.31;5053269;28;20029;-53
2021/12/12 01:52:51;;;;;;;31.75;12.50;;;;;;;-8.01;66.13;101395.47;5051884;28;20082;-52
2021/12/12 01:55:21;;;;;;;33.28;12.10;;;;;;;-8.02;65.95;101394.59;5052340;28;20075;-54
2021/12/12 01:57:48;;;;;;;32.35;11.85;;;;;;;-8.13;66.25;101375.28;5052830;28;20036;-53
2021/12/12 02:00:42;;;;;;;35.78;12.52;;;;;;;-8.06;66.06;101392.78;5053004;28;20507;-55
2021/12/12 02:03:11;;;;;;;32.67;11.65;;;;;;;-8.02;66.00;101384.19;5053051;28;20125;-51
2021/12/12 02:05:38;;;;;;;31.63;11.25;;;;;;;-8.07;66.25;101385.81;5053634;28;20036;-52
2021/12/12 02:08:08;;;;;;;32.78;12.13;;;;;;;-8.10;66.44;101397.00;5053383;28;20037;-52
2021/12/12 02:10:39;;;;;;;31.38;12.30;;;;;;;-8.12;67.10;101387.44;5052840;28;20041;-50
2021/12/12 02:13:08;;;;;;;37.58;12.00;;;;;;;-8.11;66.96;101384.88;5053288;28;20074;-54
2021/12/12 02:15:37;;;;;;;35.47;11.88;;;;;;;-8.01;67.09;101385.06;5053354;28;20025;-55
2021/12/12 02:18:10;;;;;;;32.05;10.35;;;;;;;-7.84;65.46;101398.41;5053069;28;20428;-52
2021/12/12 02:20:45;;;;;;;29.88;11.05;;;;;;;-7.90;65.73;101372.31;5053424;28;20036;-50
2021/12/12 02:36:51;;;;;;;21.85;8.68;;;;;;;-8.16;66.48;101391.69;5052681;28;20029;-54
2021/12/12 02:39:17;;;;;;;30.33;11.05;;;;;;;-8.13;66.31;101385.69;5052329;28;20159;-50
2021/12/12 02:41:48;;;;;;;24.17;8.10;;;;;;;-8.05;66.25;101378.94;5052621;28;20029;-53
2021/12/12 02:44:15;;;;;;;27.98;10.18;;;;;;;-8.14;66.41;101378.75;5052655;28;20048;-55
2021/12/12 02:46:43;;;;;;;29.90;10.77;;;;;;;-8.12;66.61;101371.84;5052787;28;20458;-55
2021/12/12 02:49:25;;;;;;;31.70;11.07;;;;;;;-8.13;66.33;101385.69;5052645;28;20060;-54
2021/12/12 02:51:53;;;;;;;25.42;10.07;;;;;;;-8.14;67.02;101376.13;5052354;28;20032;-49
2021/12/12 02:54:19;;;;;;;27.10;10.57;;;;;;;-8.08;66.94;101389.25;5051695;28;20029;-49
2021/12/12 02:56:48;;;;;;;32.03;10.77;;;;;;;-7.98;66.42;101390.34;5052276;28;20036;-56
2021/12/12 02:59:17;;;;;;;28.83;11.02;;;;;;;-8.04;66.96;101377.22;5051765;28;20033;-50
2021/12/12 03:01:58;;;;;;;15.00;5.68;;;;;;;-7.95;66.47;101365.28;5051086;28;20416;-53
2021/12/12 03:04:26;;;;;;;28.30;11.15;;;;;;;-8.12;66.45;101335.47;5052229;28;20033;-53
2021/12/12 03:06:52;;;;;;;32.47;11.13;;;;;;;-7.89;66.61;101389.66;5051966;28;20029;-54
2021/12/12 03:09:37;;;;;;;29.42;10.68;;;;;;;-7.97;66.67;101376.50;5051817;28;20106;-52
2021/12/12 03:12:10;;;;;;;31.27;11.30;;;;;;;-8.03;66.74;101369.44;5052049;28;20039;-52
2021/12/12 03:14:36;;;;;;;29.05;9.88;;;;;;;-7.95;66.89;101378.28;5051760;28;20143;-53
2021/12/12 03:17:07;;;;;;;37.05;12.07;;;;;;;-7.93;66.94;101368.78;5033910;28;20035;-54
2021/12/12 03:19:33;;;;;;;32.78;11.05;;;;;;;-8.01;67.06;101359.94;5051745;28;20033;-50
2021/12/12 03:21:59;;;;;;;25.92;10.75;;;;;;;-7.88;66.91;101368.00;5052038;28;20095;-51
2021/12/12 03:24:27;;;;;;;32.85;10.43;;;;;;;-7.85;67.12;101368.06;5051778;28;20037;-49
2021/12/12 03:26:59;;;;;;;24.23;10.35;;;;;;;-7.87;66.73;101348.97;5051291;28;20045;-50
2021/12/12 03:29:26;;;;;;;27.38;10.52;;;;;;;-7.91;67.21;101361.00;5050535;28;20495;-53
2021/12/12 03:32:00;;;;;;;38.97;12.20;;;;;;;-7.83;67.00;101350.78;5050529;28;20576;-51
2021/12/12 03:34:31;;;;;;;32.10;11.48;;;;;;;-7.88;67.14;101357.59;5051380;28;20055;-52
2021/12/12 03:36:57;;;;;;;30.30;9.90;;;;;;;-7.88;67.48;101365.41;5051459;28;20099;-49
2021/12/12 03:39:33;;;;;;;26.73;10.10;;;;;;;-7.90;67.35;101352.38;5051663;28;20040;-49
2021/12/12 03:42:03;;;;;;;28.30;8.88;;;;;;;-7.82;67.04;101357.72;5051588;28;20025;-51
2021/12/12 03:44:32;;;;;;;20.35;7.60;;;;;;;-7.80;67.01;101358.63;5051201;28;20028;-52
2021/12/12 03:47:06;;;;;;;19.45;6.95;;;;;;;-7.70;66.53;101354.47;5049912;28;20052;-53
2021/12/12 03:49:33;;;;;;;28.05;11.00;;;;;;;-7.79;67.15;101357.78;5051171;28;20025;-55
2021/12/12 03:51:59;;;;;;;33.25;10.95;;;;;;;-7.86;66.47;101354.16;5051313;28;20123;-52
2021/12/12 03:54:25;;;;;;;26.90;10.57;;;;;;;-7.98;67.58;101365.19;5051016;28;20032;-52
2021/12/12 03:56:51;;;;;;;20.98;7.60;;;;;;;-7.80;66.55;101343.03;5051034;28;20036;-51
2021/12/12 03:59:16;;;;;;;35.40;12.00;;;;;;;-7.99;66.73;101352.19;5051436;28;20045;-54
2021/12/12 04:01:46;;;;;;;29.63;10.35;;;;;;;-8.07;67.17;101354.63;5051538;28;20056;-52
2021/12/12 04:04:23;;;;;;;33.47;10.75;;;;;;;-8.02;67.92;101357.34;5051030;28;20078;-51
2021/12/12 04:06:50;;;;;;;26.60;8.88;;;;;;;-7.91;67.17;101367.94;5049499;28;20381;-53
2021/12/12 04:09:16;;;;;;;28.23;10.48;;;;;;;-7.90;66.54;101359.31;5051383;28;20110;-47
2021/12/12 04:11:50;;;;;;;28.67;10.25;;;;;;;-7.95;66.88;101356.59;5051255;28;20059;-51
2021/12/12 04:14:17;;;;;;;26.73;10.55;;;;;;;-7.91;66.82;101367.94;5051216;28;20515;-53
2021/12/12 04:16:46;;;;;;;31.80;10.02;;;;;;;-7.91;66.57;101371.41;5051051;28;20060;-51
2021/12/12 04:19:12;;;;;;;33.53;11.23;;;;;;;-8.10;67.37;101357.16;5050916;28;20025;-52
2021/12/12 04:21:39;;;;;;;26.65;9.82;;;;;;;-8.30;67.58;101331.63;5051000;28;20258;-49
2021/12/12 04:24:05;;;;;;;28.42;10.88;;;;;;;-7.99;66.99;101373.84;5050666;28;20032;-50
2021/12/12 04:26:33;;;;;;;30.23;10.40;;;;;;;-8.08;67.57;101373.66;5050626;28;20048;-51
2021/12/12 04:29:06;;;;;;;35.63;11.05;;;;;;;-8.07;67.49;101376.31;5050284;28;20049;-51
2021/12/12 04:31:33;;;;;;;35.28;11.45;;;;;;;-8.10;67.62;101367.56;5050527;28;20027;-55
2021/12/12 04:33:59;;;;;;;23.65;10.07;;;;;;;-7.96;67.42;101386.94;5050766;28;20029;-49
2021/12/12 04:36:27;;;;;;;30.35;10.02;;;;;;;-7.86;67.25;101380.16;5049629;28;20135;-53
2021/12/12 04:38:59;;;;;;;27.35;9.48;;;;;;;-7.85;66.69;101387.13;5050904;28;20113;-53
2021/12/12 04:41:25;;;;;;;27.83;10.18;;;;;;;-7.96;66.29;101373.94;5051020;28;20037;-52
2021/12/12 04:43:50;;;;;;;31.77;11.32;;;;;;;-8.16;66.65;101357.91;5050894;28;20028;-52
2021/12/12 04:46:23;;;;;;;28.88;10.77;;;;;;;-8.06;66.65;101382.38;5051437;28;20052;-54
2021/12/12 04:51:45;;;;;;;22.02;7.72;;;;;;;-8.09;66.04;101372.78;5050690;28;20102;-52
2021/12/12 04:54:43;;;;;;;28.85;11.07;;;;;;;-8.05;66.83;101393.66;5050760;28;20403;-52
2021/12/12 04:57:29;;;;;;;31.13;10.13;;;;;;;-8.14;66.21;101383.94;5050306;28;20108;-51
2021/12/12 05:00:18;;;;;;;30.42;11.32;;;;;;;-8.14;66.15;101400.41;5050899;28;20060;-51
2021/12/12 05:02:54;;;;;;;32.00;10.07;;;;;;;-8.16;66.65;101393.44;5050526;28;20453;-49
2021/12/12 05:05:26;;;;;;;29.85;10.77;;;;;;;-8.18;66.85;101393.38;5050911;28;20481;-55
2021/12/12 05:07:58;;;;;;;27.10;11.23;;;;;;;-8.14;66.32;101400.41;5050862;28;20060;-53
2021/12/12 05:10:31;;;;;;;33.22;11.68;;;;;;;-8.14;66.97;101402.13;5050581;28;20033;-51
2021/12/12 05:13:07;;;;;;;35.67;11.95;;;;;;;-7.96;66.44;101409.44;5050520;28;20500;-52
2021/12/12 05:15:58;;;;;;;23.80;8.40;;;;;;;-7.90;65.85;101403.50;5050801;28;20056;-52
2021/12/12 05:18:35;;;;;;;24.63;9.70;;;;;;;-8.15;66.01;101371.78;5050880;28;20033;-52
2021/12/12 05:21:08;;;;;;;30.80;11.55;;;;;;;-7.94;66.03;101408.63;5050241;28;20033;-56
2021/12/12 05:23:35;;;;;;;33.67;10.80;;;;;;;-8.00;66.81;101398.09;5051041;28;20036;-52
2021/12/12 05:26:13;;;;;;;29.48;11.63;;;;;;;-7.87;66.91;101407.03;5054304;28;20493;-53
2021/12/12 05:28:48;;;;;;;31.58;11.52;;;;;;;-7.67;65.72;101404.84;5054215;28;20101;-49
2021/12/12 05:31:14;;;;;;;;;;;;;;;-7.57;65.62;101405.91;5054457;28;20118;-51
2021/12/12 05:33:41;;;;;;;32.85;11.13;;;;;;;-7.70;65.40;101411.69;5053992;28;19919;-54
2021/12/12 05:36:09;;;;;;;29.65;11.80;;;;;;;-7.77;65.86;101410.69;5054283;28;20064;-51
2021/12/12 05:38:35;;;;;;;23.30;8.57;;;;;;;-7.75;65.90;101421.13;5053977;28;20331;-52
2021/12/12 05:41:02;;;;;;;29.05;10.60;;;;;;;-7.80;65.79;101415.84;5052781;28;20057;-52
2021/12/12 05:43:28;;;;;;;24.50;9.38;;;;;;;-7.79;65.54;101417.59;5053833;28;20029;-52
2021/12/12 05:45:54;;;;;;;29.02;10.88;;;;;;;-7.87;65.94;101408.75;5053795;28;20389;-51
2021/12/12 05:48:22;;;;;;;38.38;11.25;;;;;;;-8.05;66.36;101404.91;5053910;28;20029;-52
2021/12/12 05:50:49;;;;;;;32.45;10.95;;;;;;;-8.04;66.64;101398.88;5053677;28;20037;-50
2021/12/12 05:53:15;;;;;;;35.75;11.95;;;;;;;-8.07;67.25;101404.00;5052197;28;20029;-56
2021/12/12 05:55:42;;;;;;;35.92;12.20;;;;;;;-8.01;67.36;101411.94;5053504;28;20029;-49
2021/12/12 05:58:12;;;;;;;35.40;11.65;;;;;;;-7.96;66.55;101402.53;5052656;28;20488;-51
2021/12/12 06:00:47;;;;;;;39.55;12.50;;;;;;;-8.09;67.57;101413.50;5053475;28;20040;-52
2021/12/12 06:03:16;;;;;;;31.23;11.18;;;;;;;-8.08;67.84;101404.84;5052226;28;20021;-55
2021/12/12 06:05:42;;;;;;;38.17;12.40;;;;;;;-8.05;67.69;101396.25;5053622;28;20044;-54
2021/12/12 06:08:09;;;;;;;31.33;11.73;;;;;;;-7.97;67.79;101403.34;5052381;28;20484;-52
2021/12/12 06:10:37;;;;;;;22.00;8.65;;;;;;;-7.80;67.26;101405.44;5053110;28;20116;-55
2021/12/12 06:13:09;;;;;;;41.03;12.95;;;;;;;-7.93;67.02;101405.19;5053254;28;20033;-54
2021/12/12 06:15:35;;;;;;;23.42;7.65;;;;;;;-7.73;66.52;101428.09;5053542;28;20040;-55
2021/12/12 06:18:02;;;;;;;33.92;12.05;;;;;;;-8.00;67.18;101398.09;5053269;28;20021;-58
2021/12/12 06:20:28;;;;;;;40.22;11.85;;;;;;;-8.00;67.22;101423.22;5052803;28;20071;-53
2021/12/12 06:22:55;;;;;;;40.10;14.07;;;;;;;-8.17;68.45;101405.53;5053501;28;20025;-55
2021/12/12 06:25:21;;;;;;;33.28;12.10;;;;;;;-7.90;67.16;101442.50;5053052;28;20505;-52
2021/12/12 06:27:47;;;;;;;39.63;12.02;;;;;;;-8.04;67.87;101421.41;5053069;28;20122;-55
2021/12/12 06:30:20;;;;;;;35.50;12.10;;;;;;;-8.28;68.28;101379.31;5052671;28;20037;-57
2021/12/12 06:32:48;;;;;;;38.22;12.30;;;;;;;-8.11;68.64;101408.25;5052783;28;20475;-53
2021/12/12 06:35:14;;;;;;;37.10;12.55;;;;;;;-8.03;68.89;101391.97;5053058;28;20048;-55
2021/12/12 06:37:42;;;;;;;35.13;12.10;;;;;;;-7.97;68.97;101400.75;5052833;28;20102;-53
2021/12/12 06:40:14;;;;;;;37.92;12.15;;;;;;;-7.78;68.02;101404.63;5050139;28;20036;-50
2021/12/12 06:42:41;;;;;;;31.23;9.32;;;;;;;-7.66;67.80;101396.19;5052900;28;20040;-50
2021/12/12 06:45:10;;;;;;;52.28;13.80;;;;;;;-7.60;67.03;101405.81;5052306;28;20029;-54
2021/12/12 06:47:36;;;;;;;32.90;11.50;;;;;;;-7.67;67.39;101397.03;5053176;28;20032;-54
2021/12/12 06:50:04;;;;;;;46.22;13.55;;;;;;;-7.80;67.47;101402.84;5052579;28;20362;-52
2021/12/12 06:52:31;;;;;;;35.55;11.38;;;;;;;-7.70;67.38;101415.19;5052478;28;20033;-53
2021/12/12 06:54:57;;;;;;;42.78;12.95;;;;;;;-7.79;67.88;101414.97;5052485;28;20029;-56
2021/12/12 06:57:23;;;;;;;22.60;8.68;;;;;;;-7.68;67.34;101408.28;5052843;28;20052;-55
2021/12/12 06:59:50;;;;;;;41.70;14.10;;;;;;;-7.75;67.35;101398.59;5052295;28;20051;-57
2021/12/12 07:02:16;;;;;;;25.88;9.68;;;;;;;-8.04;67.38;101370.28;5050737;28;20461;-53
2021/12/12 07:04:44;;;;;;;45.83;15.23;;;;;;;-7.79;67.42;101421.06;5051084;28;20079;-50
2021/12/12 07:07:12;;;;;;;40.67;14.80;;;;;;;-7.95;68.35;101422.47;5050499;28;20033;-49
2021/12/12 07:09:39;;;;;;;44.60;13.82;;;;;;;-7.83;68.55;101426.16;5051536;28;20115;-56
2021/12/12 07:12:09;;;;;;;41.95;13.10;;;;;;;-7.67;68.08;101422.16;5052234;28;20428;-57
2021/12/12 07:14:36;;;;;;;39.90;11.88;;;;;;;-7.59;67.67;101424.91;5052334;28;20027;-53
2021/12/12 07:17:03;;;;;;;43.60;14.57;;;;;;;-7.60;67.33;101405.81;5051298;28;20028;-54
2021/12/12 07:19:30;;;;;;;31.45;10.13;;;;;;;-7.52;67.67;101408.56;5048546;28;20094;-56
2021/12/12 07:21:59;;;;;;;39.67;14.27;;;;;;;-7.49;66.90;101408.63;5051006;28;20465;-56
2021/12/12 07:24:26;;;;;;;41.15;13.07;;;;;;;-7.62;66.54;101365.03;5050969;28;20045;-58
2021/12/12 07:26:53;;;;;;;54.80;16.35;;;;;;;-7.52;66.91;101400.78;5051470;28;20044;-57
2021/12/12 07:29:19;;;;;;;43.45;14.18;;;;;;;-7.56;67.70;101388.56;5051728;28;20041;-52
2021/12/12 07:31:45;;;;;;;41.97;14.43;;;;;;;-7.47;67.93;101391.34;5048603;28;20025;-54
2021/12/12 07:34:15;;;;;;;42.97;13.13;;;;;;;-7.29;66.94;101402.94;5038704;28;20037;-57
2021/12/12 07:36:51;;;;;;;42.42;12.82;;;;;;;-7.19;66.55;101394.47;5039888;28;20045;-56
2021/12/12 07:39:19;;;;;;;41.00;11.90;;;;;;;-7.48;66.69;101355.75;5042260;28;20033;-57
2021/12/12 07:41:47;;;;;;;50.97;15.77;;;;;;;-7.28;67.17;101399.47;5041954;28;20087;-58
2021/12/12 07:44:15;;;;;;;44.92;15.32;;;;;;;-7.24;67.14;101398.69;5036598;28;20025;-54
2021/12/12 07:46:43;;;;;;;36.38;12.70;;;;;;;-7.13;66.73;101394.56;5032427;28;20039;-55
2021/12/12 07:49:09;;;;;;;48.65;14.70;;;;;;;-7.12;66.67;101396.31;5044669;28;20030;-57
2021/12/12 07:51:38;;;;;;;53.00;15.32;;;;;;;-7.09;66.73;101395.50;5032796;28;20025;-57
2021/12/12 07:54:05;;;;;;;51.65;15.45;;;;;;;-7.02;66.21;101393.84;5031490;28;20080;-57
2021/12/12 07:56:33;;;;;;;53.90;15.93;;;;;;;-7.07;66.91;101410.28;5032934;28;20060;-56
2021/12/12 07:59:00;;;;;;;55.53;16.23;;;;;;;-7.03;66.61;101394.72;5047019;28;20068;-54
2021/12/12 08:01:26;;;;;;;46.97;14.88;;;;;;;-7.08;67.42;101394.66;5048737;28;20029;-51
2021/12/12 08:03:54;;;;;;;47.47;14.00;;;;;;;-6.97;66.80;101405.25;5037225;28;20392;-52
2021/12/12 08:06:21;;;;;;;50.45;15.05;;;;;;;-7.04;67.18;101400.75;5039567;28;20124;-54
2021/12/12 08:08:47;;;;;;;43.38;14.07;;;;;;;-6.97;67.63;101410.47;5050066;28;20463;-54
2021/12/12 08:11:23;;;;;;;46.75;14.38;;;;;;;-6.87;67.37;101404.53;5030127;28;20394;-56
2021/12/12 08:13:49;;;;;;;47.47;15.38;;;;;;;-7.06;67.07;101366.91;5030787;28;20034;-57
2021/12/12 08:16:16;;;;;;;45.42;14.68;;;;;;;-6.88;67.06;101391.47;5030901;28;20116;-58
2021/12/12 08:18:43;;;;;;;48.42;13.63;;;;;;;-6.89;67.85;101382.81;5030526;28;20030;-55
2021/12/12 08:21:09;;;;;;;48.20;14.25;;;;;;;-6.85;67.21;101384.59;5030812;28;20025;-55
2021/12/12 08:23:36;;;;;;;51.92;15.27;;;;;;;-6.95;67.86;101395.72;5031013;28;20437;-52
2021/12/12 08:26:03;;;;;;;51.28;15.75;;;;;;;-6.95;68.29;101370.56;5031219;28;20089;-51
2021/12/12 08:28:30;;;;;;;51.00;16.77;;;;;;;-6.87;68.45;101381.09;5028154;28;20116;-56
2021/12/12 08:30:56;;;;;;;50.28;14.82;;;;;;;-6.75;67.78;101376.94;5028614;28;20447;-53
2021/12/12 08:33:23;;;;;;;38.95;12.70;;;;;;;-6.69;67.03;101367.50;5028365;28;20092;-58
2021/12/12 08:35:49;;;;;;;54.17;17.48;;;;;;;-6.71;66.92;101363.13;5028969;28;20037;-54
2021/12/12 08:38:16;;;;;;;53.92;16.52;;;;;;;-7.12;67.80;101340.75;5028455;28;20490;-55
2021/12/12 08:40:49;;;;;;;56.97;16.83;;;;;;;-7.13;68.19;101323.38;5027422;28;20033;-54
2021/12/12 08:43:21;;;;;;;48.95;15.70;;;;;;;-7.09;67.78;101310.44;5028320;28;20025;-55
2021/12/12 08:46:01;;;;;;;41.17;13.38;;;;;;;-6.95;67.82;101346.25;5027821;28;20082;-59
2021/12/12 08:48:31;;;;;;;54.22;16.55;;;;;;;-6.91;68.18;101363.69;5026945;28;20025;-59
2021/12/12 08:51:00;;;;;;;52.47;15.85;;;;;;;-6.92;68.88;101354.13;5026810;28;20045;-56
2021/12/12 08:53:27;;;;;;;55.65;16.02;;;;;;;-6.76;68.85;101368.25;5010913;28;20030;-58
2021/12/12 08:55:56;;;;;;;56.90;16.40;;;;;;;-6.64;68.77;101365.81;5026989;28;20030;-57
2021/12/12 08:58:29;;;;;;;56.45;16.15;;;;;;;-6.49;67.96;101362.59;5030547;28;20845;-56
2021/12/12 09:01:02;;;;;;;51.10;16.20;;;;;;;-6.62;67.78;101324.19;5031174;28;20057;-55
2021/12/12 09:03:35;;;;;;;44.30;13.70;;;;;;;-6.26;67.16;101375.06;5032108;28;20033;-56
2021/12/12 09:06:01;;;;;;;56.85;16.85;;;;;;;-6.47;67.79;101364.34;5032720;28;20033;-61
2021/12/12 09:08:35;;;;;;;56.40;16.30;;;;;;;-6.37;67.86;101376.63;5032742;28;20045;-56
2021/12/12 09:11:25;;;;;;;53.35;16.92;;;;;;;-6.25;67.99;101386.38;5031324;28;20033;-55
2021/12/12 09:14:00;;;;;;;52.17;17.33;;;;;;;-6.17;67.55;101371.69;5030721;28;20033;-58
2021/12/12 09:16:32;;;;;;;64.22;18.58;;;;;;;-6.44;67.82;101335.72;5031228;28;20033;-56
2021/12/12 09:19:05;;;;;;;59.33;20.00;;;;;;;-6.16;67.40;101369.97;5033935;28;20038;-59
2021/12/12 09:22:00;;;;;;;63.85;18.27;;;;;;;-6.24;68.04;101362.94;5033517;28;20107;-55
2021/12/12 09:24:45;;;;;;;55.95;17.95;;;;;;;-6.32;67.37;101324.59;5033146;28;20473;-58
2021/12/12 09:27:18;;;;;;;51.23;15.87;;;;;;;-6.14;67.37;101363.03;5038647;28;20033;-55
2021/12/12 09:30:05;;;;;;;64.10;19.10;;;;;;;-6.23;68.41;101364.69;5036376;28;20462;-53
2021/12/12 09:32:45;;;;;;;63.22;19.45;;;;;;;-6.08;68.28;101370.94;5033105;28;20481;-53
2021/12/12 09:35:15;;;;;;;65.18;18.65;;;;;;;-6.00;69.09;101355.38;5034035;28;20033;-56
2021/12/12 09:37:47;;;;;;;55.20;17.33;;;;;;;-5.88;67.65;101354.63;5033818;28;20389;-59
2021/12/12 09:40:12;;;;;;;60.35;19.10;;;;;;;-5.88;67.43;101345.09;5033642;28;20050;-57
2021/12/12 09:42:58;;;;;;;55.75;16.92;;;;;;;-5.87;67.82;101345.94;5032078;28;20059;-60
2021/12/12 09:45:42;;;;;;;45.42;12.45;;;;;;;-5.80;67.24;101347.78;5032535;28;20897;-56
2021/12/12 09:52:09;;;;;;;56.20;17.42;;;;;;;-5.77;67.47;101347.84;4991422;28;20062;-55
2021/12/12 09:54:41;;;;;;;59.40;18.67;;;;;;;-5.88;67.78;101344.19;4992383;28;20046;-61
2021/12/12 09:57:06;;;;;;;73.07;19.20;;;;;;;-5.89;68.94;101348.56;5017416;28;20091;-54
2021/12/12 09:59:54;;;;;;;56.78;16.48;;;;;;;-5.68;68.09;101341.81;5033955;28;20033;-58
2021/12/12 10:02:23;;;;;;;63.63;17.80;;;;;;;-5.60;67.78;101331.47;5033405;28;20108;-55
2021/12/12 10:05:01;;;;;;;69.75;19.35;;;;;;;-5.66;67.66;101333.16;5033391;28;20477;-55
2021/12/12 10:07:45;;;;;;;64.13;19.38;;;;;;;-5.56;68.31;101346.28;5032230;28;20113;-58
2021/12/12 10:10:34;;;;;;;58.03;17.65;;;;;;;-5.44;68.42;101338.59;5032611;28;20073;-58
2021/12/12 10:13:13;;;;;;;49.08;15.70;;;;;;;-5.41;68.47;101320.34;5032473;28;20033;-58
2021/12/12 10:15:45;;;;;;;65.90;18.45;;;;;;;-5.35;69.06;101330.84;5031929;28;20412;-59
2021/12/12 10:18:29;;;;;;;56.50;18.88;;;;;;;-5.23;69.02;101324.84;5032908;28;20053;-60
2021/12/12 10:21:01;;;;;;;60.17;19.33;;;;;;;-5.11;68.30;101331.06;5033076;28;20462;-59
2021/12/12 10:23:42;;;;;;;54.15;16.20;;;;;;;-5.02;68.08;101323.28;5031667;28;20518;-62
2021/12/12 10:26:24;;;;;;;58.58;17.98;;;;;;;-5.08;68.24;101333.69;5033124;28;20064;-60
2021/12/12 10:28:58;;;;;;;56.70;18.00;;;;;;;-5.13;68.49;101331.03;5032939;28;20038;-58
2021/12/12 10:31:38;;;;;;;60.33;19.17;;;;;;;-5.15;69.24;101322.31;5033513;28;20036;-60
2021/12/12 10:34:09;;;;;;;50.88;16.88;;;;;;;-5.07;68.32;101331.09;5033404;28;20029;-59
2021/12/12 10:37:01;;;;;;;54.85;17.52;;;;;;;-5.26;68.57;101314.38;5033594;28;20040;-58
2021/12/12 10:39:33;;;;;;;40.50;12.57;;;;;;;-5.10;68.75;101325.84;5033197;28;20033;-60
2021/12/12 10:42:07;;;;;;;58.50;16.90;;;;;;;-5.18;68.83;101322.28;5031879;28;20041;-60
2021/12/12 10:44:43;;;;;;;61.47;18.42;;;;;;;-5.24;69.16;101328.34;5031959;28;20036;-58
2021/12/12 10:47:14;;;;;;;55.58;17.52;;;;;;;-5.28;68.64;101300.44;5033446;28;20033;-56
2021/12/12 10:50:11;;;;;;;68.38;19.98;;;;;;;-5.38;70.47;101309.06;5031501;28;20108;-57
2021/12/12 10:52:56;;;;;;;58.80;17.48;;;;;;;-5.24;69.61;101306.59;5032867;28;20033;-59
2021/12/12 10:55:30;;;;;;;54.20;17.65;;;;;;;-5.19;69.98;101302.28;5032949;28;20100;-59
2021/12/12 10:58:11;;;;;;;56.63;17.10;;;;;;;-5.10;69.61;101307.56;5032399;28;20474;-61
2021/12/12 11:00:43;;;;;;;58.58;16.90;;;;;;;-4.99;69.67;101309.41;5032646;28;20029;-53
2021/12/12 11:03:19;;;;;;;67.07;19.13;;;;;;;-5.01;70.24;101287.63;5033115;28;20104;-58
2021/12/12 11:05:51;;;;;;;60.75;19.02;;;;;;;-4.78;70.95;101308.66;5032532;28;20069;-59
2021/12/12 11:08:28;;;;;;;51.58;16.75;;;;;;;-4.63;70.20;101307.88;5031286;28;20059;-56
2021/12/12 11:10:56;;;;;;;60.17;18.83;;;;;;;-4.51;71.08;101322.75;5032429;28;20124;-58
2021/12/12 11:13:36;;;;;;;63.47;18.30;;;;;;;-4.34;70.52;101323.75;5032654;28;20034;-57
2021/12/12 11:16:13;;;;;;;63.45;18.73;;;;;;;-4.20;70.53;101323.81;5032377;28;20425;-57
2021/12/12 11:19:07;;;;;;;57.42;16.52;;;;;;;-4.14;69.89;101324.69;5032829;28;20029;-57
2021/12/12 11:21:46;;;;;;;54.22;16.45;;;;;;;-4.13;69.64;101326.44;5031488;28;20141;-58
2021/12/12 11:24:21;;;;;;;58.22;17.73;;;;;;;-4.16;69.52;101329.94;5031553;28;20033;-55
2021/12/12 11:27:04;;;;;;;52.30;18.17;;;;;;;-4.37;69.70;101286.22;5032126;28;20045;-61
2021/12/12 11:29:52;;;;;;;57.10;19.50;;;;;;;-4.14;69.46;101327.31;5032018;28;20055;-55
2021/12/12 11:32:24;;;;;;;54.08;17.40;;;;;;;-4.20;69.69;101333.41;5030766;28;20125;-61
2021/12/12 11:34:53;;;;;;;68.47;19.75;;;;;;;-4.25;69.78;101330.75;5030929;28;20032;-59
2021/12/12 11:37:35;;;;;;;69.50;21.40;;;;;;;-4.22;69.91;101322.94;5032080;28;20171;-60
2021/12/12 11:40:07;;;;;;;65.30;20.65;;;;;;;-4.27;70.08;101314.19;5032030;28;20125;-58
2021/12/12 11:42:36;;;;;;;59.08;18.48;;;;;;;-4.27;70.18;101314.19;5032163;28;20068;-56
2021/12/12 11:45:10;;;;;;;61.97;20.30;;;;;;;-4.28;70.20;101307.22;5032246;28;20032;-54
2021/12/12 11:48:00;;;;;;;58.15;18.00;;;;;;;-4.25;69.88;101308.94;5032012;28;20037;-55
2021/12/12 11:50:57;;;;;;;57.28;19.02;;;;;;;-4.30;69.47;101302.81;5032012;28;20041;-59